Terminal Aerodrome Forecast
Issued by NWS Twin Cities, MN

Home | Current Version | Previous Version | Graphics & Text | Print | Product List | Glossary On
Versions: 1 2 3 4 5 6 7 8 9 10 11 12 13 14 15 16 17 18
676
FTUS43 KMPX 101737
TAFEAU
TAF
KEAU 101737Z 1018/1118 33008KT P6SM OVC020
     FM110000 VRB03KT P6SM BKN025 OVC080
     FM110400 18002KT P6SM VCSH OVC015
     FM110600 18006KT 2SM -SN BR OVC012
     FM110900 17005KT 1 1/2SM -SN BR OVC007
     FM111500 23005KT 2SM -SN BR OVC007=

USA.gov is the U.S. government's official web portal to all federal, state and local government web resources and services.